Terminal Aerodrome Forecast
Issued by NWS Corpus Christi, TX

Home | Current Version | Previous Version | Text Only | Print | Product List | Glossary On
Versions: 1 2 3 4 5 6 7 8 9 10 11 12 13
599
FTUS44 KCRP 301730
TAFCRP
TAF
KCRP 301730Z 3018/3118 16011KT P6SM SCT040
     FM301900 13014G19KT P6SM FEW035 SCT250
     FM310100 15007KT P6SM FEW020 SCT250
     FM311300 17011KT P6SM SCT025 SCT035=

USA.gov is the U.S. government's official web portal to all federal, state and local government web resources and services.